createdAt,value
2023-01-29T00:00:18.818Z,46.65
2023-01-29T00:02:53.454Z,43.42
2023-01-29T00:05:27.823Z,46.40
2023-01-29T00:07:58.491Z,56.88
2023-01-29T00:10:27.538Z,47.95
2023-01-29T00:12:55.843Z,55.72
2023-01-29T00:15:24.113Z,55.95
2023-01-29T00:17:52.440Z,56.45
2023-01-29T00:20:20.728Z,55.63
2023-01-29T00:22:49.157Z,60.00
2023-01-29T00:25:25.006Z,61.28
2023-01-29T00:27:53.697Z,64.00
2023-01-29T00:30:22.848Z,59.97
2023-01-29T00:32:51.892Z,55.13
2023-01-29T00:35:20.188Z,58.33
2023-01-29T00:37:48.319Z,58.97
2023-01-29T00:40:17.049Z,62.67
2023-01-29T00:43:04.774Z,56.50
2023-01-29T00:45:33.514Z,60.00
2023-01-29T00:48:01.946Z,62.55
2023-01-29T00:50:30.610Z,55.75
2023-01-29T00:52:59.126Z,57.78
2023-01-29T00:55:27.738Z,52.47
2023-01-29T00:57:57.588Z,51.38
2023-01-29T01:00:26.117Z,51.90
2023-01-29T01:03:11.135Z,47.58
2023-01-29T01:05:39.726Z,47.53
2023-01-29T01:08:28.820Z,48.13
2023-01-29T01:11:00.260Z,45.60
2023-01-29T01:13:29.906Z,45.08
2023-01-29T01:15:58.677Z,41.85
2023-01-29T01:18:27.147Z,53.10
2023-01-29T01:20:59.836Z,46.33
2023-01-29T01:23:28.345Z,42.58
2023-01-29T01:25:56.636Z,31.33
2023-01-29T01:28:25.083Z,39.13
2023-01-29T01:30:54.822Z,40.70
2023-01-29T01:33:23.062Z,39.38
2023-01-29T01:35:51.211Z,40.92
2023-01-29T01:38:19.354Z,42.17
2023-01-29T01:40:47.854Z,41.08
2023-01-29T01:43:16.032Z,41.97
2023-01-29T01:45:46.751Z,44.83
2023-01-29T01:48:21.589Z,38.72
2023-01-29T01:50:52.749Z,37.28
2023-01-29T01:53:25.173Z,42.50
2023-01-29T01:55:58.936Z,41.60
2023-01-29T01:58:31.919Z,38.55
2023-01-29T02:01:16.911Z,36.88
2023-01-29T02:04:09.204Z,38.17
2023-01-29T02:06:57.956Z,36.20
2023-01-29T02:09:33.865Z,34.70
2023-01-29T02:12:02.802Z,39.33
2023-01-29T02:14:32.489Z,33.97
2023-01-29T02:17:02.520Z,36.08
2023-01-29T02:19:46.409Z,40.17
2023-01-29T02:22:30.292Z,34.58
2023-01-29T02:25:10.819Z,30.60
2023-01-29T02:28:15.291Z,32.75
2023-01-29T02:30:49.209Z,32.72
2023-01-29T02:33:27.640Z,33.65
2023-01-29T02:36:06.137Z,35.65
2023-01-29T02:38:42.035Z,35.25
2023-01-29T02:41:16.800Z,32.60
2023-01-29T02:43:49.442Z,34.45
2023-01-29T02:46:24.248Z,34.47
2023-01-29T02:49:00.560Z,32.60
2023-01-29T02:51:35.561Z,30.73
2023-01-29T02:54:09.743Z,31.83
2023-01-29T02:56:47.687Z,27.38
2023-01-29T02:59:27.163Z,31.63
2023-01-29T03:01:59.788Z,29.60
2023-01-29T03:04:32.299Z,30.40
2023-01-29T03:07:04.730Z,26.75
2023-01-29T03:09:37.973Z,25.60
2023-01-29T03:12:20.180Z,22.27
2023-01-29T03:15:09.659Z,27.52
2023-01-29T03:17:43.584Z,23.42
2023-01-29T03:20:17.652Z,23.63
2023-01-29T03:22:50.924Z,23.17
2023-01-29T03:25:39.322Z,25.63
2023-01-29T03:28:27.940Z,22.50
2023-01-29T03:31:21.379Z,25.33
2023-01-29T03:34:06.397Z,22.13
2023-01-29T03:36:39.949Z,23.70
2023-01-29T03:39:11.533Z,28.40
2023-01-29T03:41:47.787Z,26.63
2023-01-29T03:46:53.924Z,22.95
2023-01-29T03:49:31.514Z,22.23
2023-01-29T03:52:06.122Z,25.92
2023-01-29T03:54:41.758Z,27.45
2023-01-29T03:57:17.288Z,25.47
2023-01-29T03:59:54.648Z,25.25
2023-01-29T04:02:48.988Z,21.70
2023-01-29T04:05:22.217Z,20.33
2023-01-29T04:08:10.828Z,22.88
2023-01-29T04:10:41.885Z,24.95
2023-01-29T04:13:13.857Z,24.98
2023-01-29T04:15:50.659Z,18.52
2023-01-29T04:18:25.324Z,26.95
2023-01-29T04:21:08.758Z,25.60
2023-01-29T04:23:37.433Z,14.95
2023-01-29T04:26:23.071Z,12.65
2023-01-29T04:29:03.743Z,16.73
2023-01-29T04:31:39.279Z,23.85
2023-01-29T04:34:22.664Z,21.88
2023-01-29T04:37:02.957Z,23.13
2023-01-29T04:39:38.911Z,25.20
2023-01-29T04:42:14.265Z,16.15
2023-01-29T04:44:51.136Z,16.58
2023-01-29T04:47:27.245Z,13.23
2023-01-29T04:50:04.195Z,17.05
2023-01-29T04:52:47.117Z,12.32
2023-01-29T04:55:21.811Z,16.25
2023-01-29T04:57:55.836Z,27.67
2023-01-29T05:00:29.378Z,17.40
2023-01-29T05:02:58.318Z,20.83
2023-01-29T05:05:29.246Z,22.30
2023-01-29T05:07:59.534Z,16.73
2023-01-29T05:10:28.027Z,20.95
2023-01-29T05:13:01.729Z,19.88
2023-01-29T05:15:38.335Z,14.68
2023-01-29T05:18:09.199Z,20.98
2023-01-29T05:20:41.379Z,19.95
2023-01-29T05:23:12.094Z,20.40
2023-01-29T05:25:40.541Z,15.05
2023-01-29T05:28:16.335Z,20.85
2023-01-29T05:30:46.214Z,18.83
2023-01-29T05:33:16.511Z,11.18
2023-01-29T05:35:46.247Z,15.80
2023-01-29T05:38:14.663Z,21.48
2023-01-29T05:40:43.248Z,18.80
2023-01-29T05:43:16.731Z,16.95
2023-01-29T05:45:45.037Z,15.90
2023-01-29T05:48:13.144Z,18.25
2023-01-29T05:50:41.253Z,18.85
2023-01-29T05:53:11.450Z,17.85
2023-01-29T05:55:39.565Z,18.58
2023-01-29T05:58:07.797Z,17.77
2023-01-29T06:00:35.988Z,21.25
2023-01-29T06:03:04.277Z,24.35
2023-01-29T06:05:32.740Z,21.05
2023-01-29T06:08:00.985Z,18.85
2023-01-29T06:10:36.886Z,20.67
2023-01-29T06:13:05.150Z,20.70
2023-01-29T06:15:33.370Z,21.83
2023-01-29T06:18:01.638Z,18.33
2023-01-29T06:20:29.722Z,19.85
2023-01-29T06:22:57.858Z,20.73
2023-01-29T06:25:26.043Z,17.02
2023-01-29T06:27:58.384Z,15.93
2023-01-29T06:30:28.381Z,14.85
2023-01-29T06:32:58.845Z,17.38
2023-01-29T06:35:27.239Z,17.10
2023-01-29T06:37:55.537Z,18.17
2023-01-29T06:40:23.671Z,11.70
2023-01-29T06:42:51.847Z,9.35
2023-01-29T06:45:21.548Z,6.65
2023-01-29T06:47:49.720Z,12.88
2023-01-29T06:50:18.624Z,10.32
2023-01-29T06:52:46.960Z,15.35
2023-01-29T06:55:15.358Z,14.27
2023-01-29T06:57:43.770Z,10.63
2023-01-29T07:00:13.425Z,13.35
2023-01-29T07:02:43.038Z,12.60
2023-01-29T07:05:11.211Z,7.25
2023-01-29T07:07:39.387Z,11.80
2023-01-29T07:10:08.708Z,15.73
2023-01-29T07:12:36.863Z,12.35
2023-01-29T07:15:05.658Z,15.82
2023-01-29T07:17:39.899Z,15.73
2023-01-29T07:20:11.230Z,9.85
2023-01-29T07:22:39.376Z,9.98
2023-01-29T07:25:09.099Z,12.30
2023-01-29T07:27:39.269Z,11.30
2023-01-29T07:30:09.030Z,12.63
2023-01-29T07:32:37.235Z,12.02
2023-01-29T07:35:05.910Z,5.55
2023-01-29T07:37:35.614Z,16.90
2023-01-29T07:40:10.588Z,14.95
2023-01-29T07:42:40.179Z,19.17
2023-01-29T07:45:09.614Z,24.63
2023-01-29T07:47:38.123Z,13.35
2023-01-29T07:50:07.249Z,8.95
2023-01-29T07:52:36.936Z,9.18
2023-01-29T07:55:05.464Z,14.80
2023-01-29T07:57:33.791Z,11.48
2023-01-29T08:00:02.215Z,8.25
2023-01-29T08:02:40.550Z,10.98
2023-01-29T08:05:09.788Z,10.65
2023-01-29T08:07:39.613Z,11.32
2023-01-29T08:10:08.230Z,17.83
2023-01-29T08:12:36.524Z,11.10
2023-01-29T08:15:07.446Z,8.95
2023-01-29T08:17:41.323Z,10.35
2023-01-29T08:20:18.060Z,8.68
2023-01-29T08:22:48.162Z,10.98
2023-01-29T08:25:17.152Z,11.05
2023-01-29T08:27:45.451Z,10.07
2023-01-29T08:30:14.405Z,18.42
2023-01-29T08:32:42.708Z,109.18
2023-01-29T08:35:11.164Z,11.00
2023-01-29T08:37:39.332Z,8.75
2023-01-29T08:40:12.356Z,16.13
2023-01-29T08:42:41.518Z,9.50
2023-01-29T08:45:10.981Z,10.05
2023-01-29T08:47:39.214Z,8.45
2023-01-29T08:50:08.754Z,12.27
2023-01-29T08:52:36.938Z,14.48
2023-01-29T08:55:05.420Z,11.73
2023-01-29T08:57:35.005Z,3.13
2023-01-29T09:00:06.454Z,6.30
2023-01-29T09:02:34.693Z,9.88
2023-01-29T09:05:07.168Z,13.13
2023-01-29T09:07:35.698Z,11.52
2023-01-29T09:10:04.555Z,9.85
2023-01-29T09:12:34.132Z,12.27
2023-01-29T09:15:02.364Z,8.70
2023-01-29T09:17:30.535Z,12.35
2023-01-29T09:19:58.944Z,14.43
2023-01-29T09:22:27.272Z,7.82
2023-01-29T09:24:55.471Z,15.25
2023-01-29T09:27:23.661Z,12.90
2023-01-29T09:29:53.417Z,9.57
2023-01-29T09:32:49.815Z,11.18
2023-01-29T09:35:10.932Z,11.77
2023-01-29T09:37:39.317Z,8.10
2023-01-29T09:40:09.288Z,10.70
2023-01-29T09:42:42.213Z,6.63
2023-01-29T09:45:17.814Z,12.27
2023-01-29T09:47:46.323Z,6.90
2023-01-29T09:50:20.372Z,7.63
2023-01-29T09:52:54.052Z,8.35
2023-01-29T09:55:26.310Z,14.88
2023-01-29T09:57:57.846Z,21.35
2023-01-29T10:00:35.330Z,10.52
2023-01-29T10:03:23.037Z,9.27
2023-01-29T10:06:20.230Z,5.50
2023-01-29T10:09:23.833Z,8.05
2023-01-29T10:12:05.314Z,8.02
2023-01-29T10:14:43.743Z,7.43
2023-01-29T10:17:30.659Z,19.60
2023-01-29T10:20:32.545Z,16.98
2023-01-29T10:23:10.935Z,13.68
2023-01-29T10:25:42.326Z,11.85
2023-01-29T10:28:18.914Z,4.07
2023-01-29T10:30:50.663Z,11.02
2023-01-29T10:33:36.160Z,15.63
2023-01-29T10:36:17.052Z,7.30
2023-01-29T10:38:46.973Z,6.18
2023-01-29T10:41:32.065Z,6.38
2023-01-29T10:44:16.653Z,8.10
2023-01-29T10:47:03.568Z,10.00
2023-01-29T10:49:47.065Z,14.25
2023-01-29T10:52:27.857Z,13.32
2023-01-29T10:55:05.837Z,8.82
2023-01-29T10:57:47.497Z,12.57
2023-01-29T11:00:23.140Z,9.57
2023-01-29T11:02:53.243Z,7.38
2023-01-29T11:05:28.007Z,9.27
2023-01-29T11:08:08.338Z,11.88
2023-01-29T11:10:42.999Z,8.38
2023-01-29T11:13:16.339Z,7.80
2023-01-29T11:15:45.556Z,10.40
2023-01-29T11:18:17.995Z,7.18
2023-01-29T11:21:02.284Z,8.80
2023-01-29T11:23:33.497Z,7.07
2023-01-29T11:26:04.807Z,5.80
2023-01-29T11:28:40.883Z,5.25
2023-01-29T11:33:55.360Z,8.27
2023-01-29T11:36:34.071Z,10.73
2023-01-29T11:39:24.132Z,16.33
2023-01-29T11:41:57.887Z,12.32
2023-01-29T11:44:30.589Z,12.13
2023-01-29T11:47:11.687Z,22.63
2023-01-29T11:49:43.520Z,7.47
2023-01-29T11:52:16.247Z,6.80
2023-01-29T11:54:49.308Z,7.80
2023-01-29T11:57:29.348Z,9.07
2023-01-29T12:00:01.709Z,9.48
2023-01-29T12:02:39.854Z,5.10
2023-01-29T12:05:17.172Z,7.10
2023-01-29T12:07:49.177Z,7.30
2023-01-29T12:10:33.750Z,6.97
2023-01-29T12:13:19.918Z,7.72
2023-01-29T12:15:50.000Z,8.45
2023-01-29T12:18:25.139Z,8.82
2023-01-29T12:20:57.969Z,9.55
2023-01-29T12:23:38.320Z,4.20
2023-01-29T12:26:11.026Z,6.90
2023-01-29T12:28:47.362Z,7.15
2023-01-29T12:31:28.574Z,4.53
2023-01-29T12:34:04.449Z,8.02
2023-01-29T12:36:39.735Z,4.90
2023-01-29T12:39:12.082Z,5.72
2023-01-29T12:41:46.128Z,5.53
2023-01-29T12:44:20.794Z,7.43
2023-01-29T12:46:54.506Z,8.52
2023-01-29T12:49:26.488Z,8.85
2023-01-29T12:52:00.005Z,10.07
2023-01-29T12:54:38.853Z,12.65
2023-01-29T12:57:15.918Z,8.35
2023-01-29T12:59:48.844Z,8.35
2023-01-29T13:02:32.081Z,11.90
2023-01-29T13:05:07.432Z,6.10
2023-01-29T13:07:46.262Z,7.43
2023-01-29T13:10:21.711Z,9.32
2023-01-29T13:12:55.855Z,8.27
2023-01-29T13:15:28.814Z,9.77
2023-01-29T13:18:03.651Z,8.40
2023-01-29T13:20:36.312Z,8.88
2023-01-29T13:23:16.735Z,12.10
2023-01-29T13:25:46.915Z,10.75
2023-01-29T13:28:21.029Z,11.63
2023-01-29T13:31:13.257Z,5.93
2023-01-29T13:33:43.227Z,3.75
2023-01-29T13:36:27.565Z,4.50
2023-01-29T13:39:03.315Z,11.40
2023-01-29T13:41:42.803Z,7.05
2023-01-29T13:44:22.370Z,7.18
2023-01-29T13:46:58.919Z,10.60
2023-01-29T13:49:34.521Z,8.15
2023-01-29T13:52:19.037Z,12.43
2023-01-29T13:54:58.960Z,11.95
2023-01-29T13:57:50.262Z,10.70
2023-01-29T14:01:01.645Z,5.70
2023-01-29T14:04:05.597Z,7.50
2023-01-29T14:06:46.941Z,6.10
2023-01-29T14:10:03.481Z,13.18
2023-01-29T14:12:45.557Z,8.93
2023-01-29T14:15:22.940Z,12.95
2023-01-29T14:18:19.642Z,8.00
2023-01-29T14:21:00.100Z,7.82
2023-01-29T14:23:37.303Z,11.15
2023-01-29T14:26:20.104Z,14.50
2023-01-29T14:28:59.579Z,17.02
2023-01-29T14:31:33.367Z,18.13
2023-01-29T14:34:04.239Z,14.63
2023-01-29T14:36:41.555Z,10.32
2023-01-29T14:39:25.613Z,14.07
2023-01-29T14:41:55.049Z,17.70
2023-01-29T14:44:57.188Z,22.00
2023-01-29T14:47:57.153Z,24.42
2023-01-29T14:50:48.762Z,7.53
2023-01-29T14:53:23.273Z,16.88
2023-01-29T14:55:57.635Z,9.18
2023-01-29T14:58:35.381Z,11.50
2023-01-29T15:01:09.180Z,14.30
2023-01-29T15:03:44.931Z,18.67
2023-01-29T15:06:19.762Z,15.10
2023-01-29T15:08:54.718Z,14.02
2023-01-29T15:11:37.228Z,6.18
2023-01-29T15:14:32.325Z,5.25
2023-01-29T15:17:18.281Z,14.50
2023-01-29T15:19:49.570Z,10.10
2023-01-29T15:22:21.097Z,10.85
2023-01-29T15:25:04.495Z,15.95
2023-01-29T15:27:33.301Z,5.40
2023-01-29T15:30:04.929Z,16.25
2023-01-29T15:32:37.927Z,9.80
2023-01-29T15:35:11.654Z,19.45
2023-01-29T15:37:41.654Z,17.20
2023-01-29T15:40:19.376Z,17.92
2023-01-29T15:42:49.578Z,18.30
2023-01-29T15:45:28.559Z,21.85
2023-01-29T15:48:02.889Z,19.33
2023-01-29T15:50:33.252Z,18.35
2023-01-29T15:53:05.380Z,11.88
2023-01-29T15:55:35.763Z,19.40
2023-01-29T15:58:05.841Z,25.15
2023-01-29T16:00:37.091Z,23.48
2023-01-29T16:03:19.499Z,16.38
2023-01-29T16:05:48.687Z,19.70
2023-01-29T16:08:18.475Z,18.58
2023-01-29T16:10:52.593Z,19.85
2023-01-29T16:13:23.759Z,23.27
2023-01-29T16:15:58.182Z,22.67
2023-01-29T16:18:35.248Z,14.68
2023-01-29T16:21:09.838Z,11.57
2023-01-29T16:23:45.809Z,18.42
2023-01-29T16:26:18.291Z,14.55
2023-01-29T16:28:48.908Z,17.52
2023-01-29T16:31:26.458Z,14.55
2023-01-29T16:34:00.628Z,28.55
2023-01-29T16:36:30.594Z,33.63
2023-01-29T16:39:05.823Z,36.90
2023-01-29T16:41:38.877Z,31.27
2023-01-29T16:44:33.783Z,25.40
2023-01-29T16:47:15.893Z,25.73
2023-01-29T16:49:54.197Z,22.48
2023-01-29T16:52:26.771Z,13.98
2023-01-29T16:55:02.856Z,6.45
2023-01-29T16:57:35.131Z,9.98
2023-01-29T17:00:11.664Z,21.52
2023-01-29T17:02:42.363Z,17.50
2023-01-29T17:05:23.951Z,7.03
2023-01-29T17:07:54.246Z,13.95
2023-01-29T17:10:24.008Z,34.05
2023-01-29T17:12:58.039Z,8.65
2023-01-29T17:15:37.356Z,11.27
2023-01-29T17:18:18.883Z,14.38
2023-01-29T17:20:51.688Z,12.07
2023-01-29T17:23:24.963Z,11.25
2023-01-29T17:25:54.527Z,14.55
2023-01-29T17:28:24.895Z,17.40
2023-01-29T17:31:05.893Z,16.52
2023-01-29T17:33:37.860Z,15.88
2023-01-29T17:36:17.463Z,25.92
2023-01-29T17:38:47.728Z,20.63
2023-01-29T17:41:26.837Z,23.10
2023-01-29T17:43:56.614Z,26.52
2023-01-29T17:46:27.653Z,6.13
2023-01-29T17:48:59.991Z,11.25
2023-01-29T17:51:31.913Z,21.35
2023-01-29T17:54:03.563Z,28.45
2023-01-29T17:56:35.242Z,28.40
2023-01-29T17:59:10.736Z,30.35
2023-01-29T18:01:40.302Z,32.05
2023-01-29T18:04:09.450Z,19.95
2023-01-29T18:06:43.932Z,31.23
2023-01-29T18:09:15.806Z,33.88
2023-01-29T18:11:46.585Z,19.25
2023-01-29T18:14:20.096Z,30.27
2023-01-29T18:16:50.975Z,21.38
2023-01-29T18:19:28.876Z,28.70
2023-01-29T18:21:59.734Z,28.63
2023-01-29T18:24:32.417Z,24.35
2023-01-29T18:27:02.241Z,14.82
2023-01-29T18:29:33.978Z,19.35
2023-01-29T18:32:04.133Z,17.98
2023-01-29T18:34:34.473Z,25.17
2023-01-29T18:37:05.467Z,20.77
2023-01-29T18:39:35.204Z,20.45
2023-01-29T18:42:05.010Z,20.95
2023-01-29T18:44:36.363Z,23.52
2023-01-29T18:47:10.589Z,7.40
2023-01-29T18:49:40.975Z,19.63
2023-01-29T18:52:12.355Z,26.98
2023-01-29T18:54:41.836Z,26.98
2023-01-29T18:57:15.942Z,20.38
2023-01-29T19:00:01.658Z,22.73
2023-01-29T19:02:33.119Z,23.48
2023-01-29T19:05:03.213Z,28.50
2023-01-29T19:07:35.360Z,20.27
2023-01-29T19:10:07.399Z,9.85
2023-01-29T19:12:41.928Z,10.02
2023-01-29T19:15:13.202Z,13.85
2023-01-29T19:17:43.424Z,18.92
2023-01-29T19:20:14.073Z,21.88
2023-01-29T19:22:46.141Z,23.10
2023-01-29T19:25:16.989Z,24.83
2023-01-29T19:27:48.323Z,22.88
2023-01-29T19:30:20.469Z,23.73
2023-01-29T19:32:50.092Z,24.90
2023-01-29T19:35:20.600Z,20.92
2023-01-29T19:37:54.111Z,19.80
2023-01-29T19:40:25.047Z,21.30
2023-01-29T19:42:57.152Z,23.75
2023-01-29T19:45:49.706Z,21.75
2023-01-29T19:48:20.949Z,18.63
2023-01-29T19:50:54.244Z,17.17
2023-01-29T19:53:27.026Z,14.80
2023-01-29T19:56:01.018Z,22.42
2023-01-29T19:58:36.211Z,19.25
2023-01-29T20:01:08.615Z,19.75
2023-01-29T20:03:40.061Z,20.73
2023-01-29T20:06:14.838Z,16.42
2023-01-29T20:08:48.487Z,17.15
2023-01-29T20:11:19.215Z,19.20
2023-01-29T20:13:50.331Z,16.60
2023-01-29T20:16:21.199Z,18.50
2023-01-29T20:18:51.083Z,22.95
2023-01-29T20:21:23.948Z,19.20
2023-01-29T20:23:57.113Z,21.58
2023-01-29T20:26:27.956Z,19.08
2023-01-29T20:29:01.651Z,16.73
2023-01-29T20:31:33.483Z,16.42
2023-01-29T20:34:06.557Z,21.83
2023-01-29T20:36:36.668Z,16.80
2023-01-29T20:39:12.537Z,17.77
2023-01-29T20:44:16.653Z,15.35
2023-01-29T20:46:47.009Z,20.77
2023-01-29T20:49:18.510Z,23.80
2023-01-29T20:51:48.953Z,21.63
2023-01-29T20:54:22.037Z,20.48
2023-01-29T20:56:51.450Z,26.17
2023-01-29T20:59:21.885Z,25.42
2023-01-29T21:01:52.039Z,24.30
2023-01-29T21:04:22.246Z,21.08
2023-01-29T21:06:52.895Z,25.92
2023-01-29T21:09:24.565Z,25.52
2023-01-29T21:11:56.567Z,28.33
2023-01-29T21:14:26.116Z,22.38
2023-01-29T21:16:56.363Z,23.08
2023-01-29T21:19:28.478Z,26.52
2023-01-29T21:21:58.370Z,25.58
2023-01-29T21:24:29.560Z,30.35
2023-01-29T21:26:59.782Z,21.25
2023-01-29T21:29:28.709Z,21.27
2023-01-29T21:31:58.454Z,22.27
2023-01-29T21:34:27.881Z,22.85
2023-01-29T21:36:56.271Z,19.33
2023-01-29T21:39:26.532Z,19.00
2023-01-29T21:42:14.092Z,21.77
2023-01-29T21:44:42.467Z,23.23
2023-01-29T21:47:13.877Z,25.15
2023-01-29T21:49:43.427Z,29.60
2023-01-29T21:52:14.491Z,33.13
2023-01-29T21:54:49.111Z,31.55
2023-01-29T21:57:19.155Z,34.78
2023-01-29T21:59:53.079Z,35.78
2023-01-29T22:02:22.750Z,36.28
2023-01-29T22:04:52.403Z,36.25
2023-01-29T22:07:20.805Z,23.27
2023-01-29T22:09:49.173Z,29.38
2023-01-29T22:12:18.773Z,37.90
2023-01-29T22:14:48.985Z,34.42
2023-01-29T22:17:22.649Z,32.67
2023-01-29T22:19:56.899Z,31.77
2023-01-29T22:22:29.204Z,33.50
2023-01-29T22:25:01.659Z,40.63
2023-01-29T22:27:33.343Z,40.28
2023-01-29T22:30:03.220Z,41.25
2023-01-29T22:33:04.382Z,40.85
2023-01-29T22:35:33.983Z,37.40
2023-01-29T22:38:05.985Z,39.75
2023-01-29T22:40:38.322Z,28.20
2023-01-29T22:43:11.548Z,31.27
2023-01-29T22:45:41.136Z,24.83
2023-01-29T22:48:13.236Z,29.88
2023-01-29T22:50:53.123Z,24.98
2023-01-29T22:53:21.561Z,25.65
2023-01-29T22:55:55.864Z,25.65
2023-01-29T22:58:25.689Z,25.15
2023-01-29T23:00:57.138Z,25.58
2023-01-29T23:04:00.006Z,25.08
2023-01-29T23:06:28.398Z,27.55
2023-01-29T23:09:56.211Z,27.77
2023-01-29T23:12:55.237Z,23.85
2023-01-29T23:15:28.777Z,22.77
2023-01-29T23:17:57.159Z,22.33
2023-01-29T23:20:28.537Z,21.60
2023-01-29T23:22:59.890Z,23.92
2023-01-29T23:26:20.385Z,21.23
2023-01-29T23:28:49.765Z,21.38
2023-01-29T23:31:25.039Z,19.00
2023-01-29T23:33:54.286Z,29.15
2023-01-29T23:36:25.709Z,31.13
2023-01-29T23:43:33.108Z,22.08
2023-01-29T23:46:12.213Z,23.02
2023-01-29T23:48:40.614Z,24.83
2023-01-29T23:51:08.929Z,23.50
2023-01-29T23:53:42.586Z,24.27
2023-01-29T23:56:15.961Z,23.67
2023-01-29T23:58:47.298Z,23.27
